createdAt,value
2017-06-03T00:00:04.395Z,0
2017-06-03T00:01:05.883Z,0
2017-06-03T00:02:07.352Z,0
2017-06-03T00:03:08.814Z,0
2017-06-03T00:04:10.296Z,0
2017-06-03T00:05:11.756Z,0
2017-06-03T00:06:13.236Z,0
2017-06-03T00:07:14.701Z,0
2017-06-03T00:08:16.155Z,0
2017-06-03T00:09:17.614Z,0
2017-06-03T00:10:19.071Z,0
2017-06-03T00:11:20.527Z,0
2017-06-03T00:12:21.993Z,0
2017-06-03T00:13:23.469Z,0
2017-06-03T00:14:24.934Z,0
2017-06-03T00:15:26.395Z,0
2017-06-03T00:16:27.866Z,0
2017-06-03T00:17:29.338Z,0
2017-06-03T00:18:30.810Z,0
2017-06-03T00:19:32.262Z,0
2017-06-03T00:20:33.727Z,0
2017-06-03T00:21:35.196Z,0
2017-06-03T00:22:36.661Z,0
2017-06-03T00:23:38.132Z,0
2017-06-03T00:24:39.591Z,0
2017-06-03T00:25:41.051Z,0
2017-06-03T00:26:42.531Z,0
2017-06-03T00:27:43.986Z,0
2017-06-03T00:28:45.440Z,0
2017-06-03T00:29:46.899Z,0
2017-06-03T00:30:48.358Z,0
2017-06-03T00:31:49.837Z,0
2017-06-03T00:32:51.299Z,0
2017-06-03T00:33:52.758Z,0
2017-06-03T00:34:54.228Z,0
2017-06-03T00:35:55.715Z,0
2017-06-03T00:36:57.172Z,0
2017-06-03T00:37:58.629Z,0
2017-06-03T00:39:00.109Z,0
2017-06-03T00:40:01.565Z,0
2017-06-03T00:41:03.021Z,0
2017-06-03T00:42:04.482Z,0
2017-06-03T00:43:05.943Z,0
2017-06-03T00:44:07.409Z,0
2017-06-03T00:45:08.863Z,0
2017-06-03T00:46:11.711Z,0
2017-06-03T00:47:13.174Z,0
2017-06-03T00:48:14.634Z,0
2017-06-03T00:49:16.114Z,0
2017-06-03T00:50:17.576Z,0
2017-06-03T00:51:19.036Z,0
2017-06-03T00:52:20.501Z,0
2017-06-03T00:53:21.960Z,0
2017-06-03T00:54:23.421Z,0
2017-06-03T00:55:24.887Z,0
2017-06-03T00:56:26.366Z,0
2017-06-03T00:57:27.827Z,0
2017-06-03T00:58:29.277Z,0
2017-06-03T00:59:30.741Z,0
2017-06-03T01:00:32.204Z,0
2017-06-03T01:01:33.695Z,0
2017-06-03T01:02:35.154Z,0
2017-06-03T01:03:36.610Z,0
2017-06-03T01:04:38.072Z,0
2017-06-03T01:05:39.525Z,0
2017-06-03T01:06:40.991Z,0
2017-06-03T01:07:42.457Z,0
2017-06-03T01:08:43.921Z,0
2017-06-03T01:09:45.378Z,0
2017-06-03T01:10:46.850Z,0
2017-06-03T01:11:48.325Z,0
2017-06-03T01:12:49.789Z,0
2017-06-03T01:13:51.263Z,0
2017-06-03T01:14:52.717Z,0
2017-06-03T01:15:54.188Z,0
2017-06-03T01:16:55.668Z,0
2017-06-03T01:17:57.125Z,0
2017-06-03T01:18:58.591Z,0
2017-06-03T01:20:00.060Z,0
2017-06-03T01:21:01.537Z,0
2017-06-03T01:22:03.007Z,0
2017-06-03T01:23:04.466Z,0
2017-06-03T01:24:05.934Z,0
2017-06-03T01:25:07.398Z,0
2017-06-03T01:26:08.878Z,0
2017-06-03T01:27:10.342Z,0
2017-06-03T01:28:11.803Z,0
2017-06-03T01:29:13.265Z,0
2017-06-03T01:30:14.719Z,0
2017-06-03T01:31:16.184Z,0
2017-06-03T01:32:17.644Z,0
2017-06-03T01:33:19.104Z,0
2017-06-03T01:34:20.644Z,0
2017-06-03T01:35:22.099Z,0
2017-06-03T01:36:23.563Z,0
2017-06-03T01:37:25.038Z,0
2017-06-03T01:38:26.501Z,0
2017-06-03T01:39:27.961Z,0
2017-06-03T01:40:29.426Z,0
2017-06-03T01:41:30.876Z,0
2017-06-03T01:42:32.352Z,0
2017-06-03T01:43:33.815Z,0
2017-06-03T01:44:35.284Z,0
2017-06-03T01:45:36.741Z,0
2017-06-03T01:46:38.212Z,0
2017-06-03T01:47:39.674Z,0
2017-06-03T01:48:41.146Z,0
2017-06-03T01:49:42.612Z,0
2017-06-03T01:50:44.077Z,0
2017-06-03T01:51:45.543Z,0
2017-06-03T01:52:47.001Z,0
2017-06-03T01:53:48.465Z,0
2017-06-03T01:54:49.934Z,0
2017-06-03T01:55:51.395Z,0
2017-06-03T01:56:52.860Z,0
2017-06-03T01:57:54.323Z,0
2017-06-03T01:58:55.788Z,0
2017-06-03T01:59:57.249Z,0
2017-06-03T02:00:58.720Z,0
2017-06-03T02:02:00.191Z,0
2017-06-03T02:03:01.638Z,0
2017-06-03T02:04:03.112Z,0
2017-06-03T02:05:04.576Z,0
2017-06-03T02:06:06.075Z,0
2017-06-03T02:07:07.512Z,0
2017-06-03T02:08:08.978Z,0
2017-06-03T02:09:10.452Z,0
2017-06-03T02:10:11.907Z,0
2017-06-03T02:11:13.375Z,0
2017-06-03T02:12:14.833Z,0
2017-06-03T02:13:16.288Z,0
2017-06-03T02:14:17.753Z,0
2017-06-03T02:15:19.210Z,0
2017-06-03T02:16:20.682Z,0
2017-06-03T02:17:22.145Z,0
2017-06-03T02:18:23.612Z,0
2017-06-03T02:19:25.071Z,0
2017-06-03T02:20:26.544Z,0
2017-06-03T02:21:28.006Z,0
2017-06-03T02:22:29.466Z,0
2017-06-03T02:23:30.926Z,0
2017-06-03T02:24:32.394Z,0
2017-06-03T02:25:33.848Z,0
2017-06-03T02:26:35.316Z,0
2017-06-03T02:27:36.779Z,0
2017-06-03T02:28:38.246Z,0
2017-06-03T02:29:39.711Z,0
2017-06-03T02:30:41.175Z,0
2017-06-03T02:31:42.640Z,0
2017-06-03T02:32:44.054Z,0
2017-06-03T02:33:45.523Z,0
2017-06-03T02:34:47.000Z,0
2017-06-03T02:35:48.462Z,0
2017-06-03T02:36:49.920Z,0
2017-06-03T02:37:51.396Z,0
2017-06-03T02:38:52.871Z,0
2017-06-03T02:39:54.321Z,0
2017-06-03T02:40:55.780Z,0
2017-06-03T02:41:57.250Z,0
2017-06-03T02:42:58.712Z,0
2017-06-03T02:44:00.182Z,0
2017-06-03T02:45:01.640Z,0
2017-06-03T02:46:03.096Z,0
2017-06-03T02:47:04.563Z,0
2017-06-03T02:48:06.024Z,0
2017-06-03T02:49:07.498Z,0
2017-06-03T02:50:08.959Z,0
2017-06-03T02:51:10.421Z,0
2017-06-03T02:52:11.902Z,0
2017-06-03T02:53:13.376Z,0
2017-06-03T02:54:14.851Z,0
2017-06-03T02:55:16.322Z,0
2017-06-03T02:56:17.793Z,0
2017-06-03T02:57:19.266Z,0
2017-06-03T02:58:20.730Z,0
2017-06-03T02:59:22.198Z,0
2017-06-03T03:00:23.666Z,0
2017-06-03T03:01:25.124Z,0
2017-06-03T03:02:26.581Z,0
2017-06-03T03:03:28.048Z,0
2017-06-03T03:04:29.547Z,0
2017-06-03T03:05:31.004Z,0
2017-06-03T03:06:32.470Z,0
2017-06-03T03:07:33.926Z,0
2017-06-03T03:08:35.393Z,0
2017-06-03T03:09:36.846Z,0
2017-06-03T03:10:38.306Z,0
2017-06-03T03:11:39.778Z,0
2017-06-03T03:12:41.263Z,0
2017-06-03T03:13:42.735Z,0
2017-06-03T03:14:44.190Z,0
2017-06-03T03:15:45.660Z,5
2017-06-03T03:16:47.119Z,5
2017-06-03T03:17:48.593Z,5
2017-06-03T03:18:50.061Z,5
2017-06-03T03:19:51.532Z,5
2017-06-03T03:20:53.000Z,5
2017-06-03T03:21:54.447Z,5
2017-06-03T03:22:55.912Z,5
2017-06-03T03:23:57.371Z,5
2017-06-03T03:24:58.838Z,5
2017-06-03T03:26:00.298Z,5
2017-06-03T03:27:01.767Z,5
2017-06-03T03:28:03.238Z,10
2017-06-03T03:29:04.695Z,10
2017-06-03T03:30:06.152Z,10
2017-06-03T03:31:07.630Z,10
2017-06-03T03:32:09.080Z,10
2017-06-03T03:33:10.550Z,10
2017-06-03T03:34:12.019Z,10
2017-06-03T03:35:13.493Z,10
2017-06-03T03:36:14.972Z,10
2017-06-03T03:37:16.455Z,10
2017-06-03T03:38:17.902Z,10
2017-06-03T03:39:19.388Z,10
2017-06-03T03:40:20.860Z,10
2017-06-03T03:41:22.327Z,10
2017-06-03T03:42:23.800Z,10
2017-06-03T03:43:25.257Z,10
2017-06-03T03:44:26.741Z,10
2017-06-03T03:45:28.211Z,10
2017-06-03T03:46:29.673Z,10
2017-06-03T03:47:31.141Z,10
2017-06-03T03:48:32.621Z,10
2017-06-03T03:49:34.091Z,10
2017-06-03T03:50:35.582Z,10
2017-06-03T03:51:37.041Z,10
2017-06-03T03:52:38.506Z,10
2017-06-03T03:53:39.969Z,10
2017-06-03T03:54:41.442Z,10
2017-06-03T03:55:42.906Z,10
2017-06-03T03:56:44.380Z,10
2017-06-03T03:57:45.853Z,10
2017-06-03T03:58:47.312Z,10
2017-06-03T03:59:48.772Z,10
2017-06-03T04:00:50.243Z,10
2017-06-03T04:01:51.713Z,10
2017-06-03T04:02:53.170Z,15
2017-06-03T04:03:54.631Z,15
2017-06-03T04:04:56.103Z,15
2017-06-03T04:05:57.566Z,15
2017-06-03T04:06:59.034Z,15
2017-06-03T04:08:00.507Z,20
2017-06-03T04:09:01.966Z,20
2017-06-03T04:10:03.433Z,20
2017-06-03T04:11:04.896Z,25
2017-06-03T04:12:06.386Z,25
2017-06-03T04:13:07.848Z,30
2017-06-03T04:14:09.314Z,35
2017-06-03T04:15:10.779Z,35
2017-06-03T04:16:12.262Z,35
2017-06-03T04:17:13.721Z,35
2017-06-03T04:18:15.185Z,35
2017-06-03T04:19:16.671Z,35
2017-06-03T04:20:18.129Z,30
2017-06-03T04:21:19.596Z,30
2017-06-03T04:22:21.066Z,30
2017-06-03T04:23:22.527Z,25
2017-06-03T04:24:24.000Z,25
2017-06-03T04:25:25.472Z,25
2017-06-03T04:26:26.946Z,25
2017-06-03T04:27:28.423Z,20
2017-06-03T04:28:29.893Z,20
2017-06-03T04:29:31.367Z,20
2017-06-03T04:30:32.834Z,20
2017-06-03T04:31:34.306Z,20
2017-06-03T04:32:35.785Z,20
2017-06-03T04:33:37.251Z,25
2017-06-03T04:34:38.726Z,25
2017-06-03T04:35:40.197Z,25
2017-06-03T04:36:41.683Z,30
2017-06-03T04:37:43.169Z,30
2017-06-03T04:38:44.680Z,35
2017-06-03T04:39:46.164Z,35
2017-06-03T04:40:47.621Z,35
2017-06-03T04:41:49.105Z,35
2017-06-03T04:42:50.567Z,35
2017-06-03T04:43:52.036Z,35
2017-06-03T04:44:53.514Z,35
2017-06-03T04:45:54.989Z,35
2017-06-03T04:46:56.467Z,35
2017-06-03T04:47:57.924Z,35
2017-06-03T04:48:59.393Z,40
2017-06-03T04:50:00.899Z,40
2017-06-03T04:51:02.372Z,40
2017-06-03T04:52:03.848Z,40
2017-06-03T04:53:05.316Z,40
2017-06-03T04:54:06.791Z,45
2017-06-03T04:55:08.261Z,45
2017-06-03T04:56:09.736Z,45
2017-06-03T04:57:11.210Z,45
2017-06-03T04:58:12.684Z,45
2017-06-03T04:59:14.155Z,45
2017-06-03T05:00:15.631Z,45
2017-06-03T05:01:17.101Z,50
2017-06-03T05:02:18.582Z,50
2017-06-03T05:03:20.055Z,55
2017-06-03T05:04:21.515Z,55
2017-06-03T05:05:22.992Z,60
2017-06-03T05:06:24.462Z,60
2017-06-03T05:07:25.931Z,65
2017-06-03T05:08:27.422Z,65
2017-06-03T05:09:28.885Z,70
2017-06-03T05:10:30.356Z,75
2017-06-03T05:11:31.904Z,90
2017-06-03T05:12:33.362Z,95
2017-06-03T05:13:34.830Z,110
2017-06-03T05:14:36.294Z,125
2017-06-03T05:15:37.771Z,135
2017-06-03T05:16:39.247Z,145
2017-06-03T05:17:40.718Z,145
2017-06-03T05:18:42.185Z,155
2017-06-03T05:19:43.656Z,160
2017-06-03T05:20:45.154Z,165
2017-06-03T05:21:46.623Z,170
2017-06-03T05:22:48.103Z,175
2017-06-03T05:23:49.570Z,180
2017-06-03T05:24:51.060Z,185
2017-06-03T05:25:52.553Z,185
2017-06-03T05:26:54.062Z,185
2017-06-03T05:27:55.533Z,180
2017-06-03T05:28:57.007Z,175
2017-06-03T05:29:58.489Z,170
2017-06-03T05:30:59.967Z,165
2017-06-03T05:32:01.436Z,160
2017-06-03T05:33:02.911Z,160
2017-06-03T05:34:04.378Z,160
2017-06-03T05:35:05.843Z,160
2017-06-03T05:36:07.373Z,155
2017-06-03T05:37:08.876Z,150
2017-06-03T05:38:10.357Z,145
2017-06-03T05:39:11.836Z,145
2017-06-03T05:40:13.318Z,145
2017-06-03T05:41:14.792Z,145
2017-06-03T05:42:16.263Z,150
2017-06-03T05:43:17.755Z,160
2017-06-03T05:44:19.224Z,165
2017-06-03T05:45:20.713Z,175
2017-06-03T05:46:22.185Z,175
2017-06-03T05:47:23.664Z,180
2017-06-03T05:48:25.124Z,175
2017-06-03T05:49:26.597Z,175
2017-06-03T05:50:28.056Z,170
2017-06-03T05:51:29.527Z,170
2017-06-03T05:52:31.013Z,175
2017-06-03T05:53:32.497Z,185
2017-06-03T05:54:33.966Z,195
2017-06-03T05:55:35.435Z,215
2017-06-03T05:56:36.905Z,225
2017-06-03T05:57:38.365Z,245
2017-06-03T05:58:39.836Z,265
2017-06-03T05:59:41.305Z,285
2017-06-03T06:00:42.766Z,300
2017-06-03T06:01:44.229Z,320
2017-06-03T06:02:45.711Z,335
2017-06-03T06:03:47.183Z,350
2017-06-03T06:04:48.672Z,355
2017-06-03T06:05:50.143Z,345
2017-06-03T06:06:51.627Z,335
2017-06-03T06:07:53.096Z,320
2017-06-03T06:08:54.567Z,300
2017-06-03T06:09:56.037Z,280
2017-06-03T06:10:57.503Z,265
2017-06-03T06:11:58.995Z,255
2017-06-03T06:13:00.464Z,255
2017-06-03T06:14:01.961Z,255
2017-06-03T06:15:03.439Z,255
2017-06-03T06:16:04.910Z,255
2017-06-03T06:17:06.371Z,255
2017-06-03T06:18:07.837Z,260
2017-06-03T06:19:09.310Z,260
2017-06-03T06:20:10.778Z,265
2017-06-03T06:21:12.253Z,275
2017-06-03T06:22:13.718Z,290
2017-06-03T06:23:15.192Z,305
2017-06-03T06:24:16.670Z,320
2017-06-03T06:25:18.150Z,340
2017-06-03T06:26:19.639Z,355
2017-06-03T06:27:21.111Z,365
2017-06-03T06:28:22.616Z,375
2017-06-03T06:29:24.064Z,385
2017-06-03T06:30:25.551Z,390
2017-06-03T06:31:27.026Z,395
2017-06-03T06:32:28.493Z,395
2017-06-03T06:33:29.970Z,400
2017-06-03T06:34:31.449Z,400
2017-06-03T06:35:33.448Z,395
2017-06-03T06:36:34.940Z,390
2017-06-03T06:37:36.408Z,385
2017-06-03T06:38:37.885Z,375
2017-06-03T06:39:39.363Z,360
2017-06-03T06:40:40.832Z,340
2017-06-03T06:41:42.300Z,330
2017-06-03T06:42:43.773Z,325
2017-06-03T06:43:45.251Z,330
2017-06-03T06:44:46.742Z,330
2017-06-03T06:45:48.209Z,325
2017-06-03T06:46:49.680Z,300
2017-06-03T06:47:51.157Z,285
2017-06-03T06:48:52.645Z,275
2017-06-03T06:49:54.118Z,280
2017-06-03T06:50:55.613Z,290
2017-06-03T06:51:57.082Z,290
2017-06-03T06:52:58.564Z,295
2017-06-03T06:54:00.035Z,285
2017-06-03T06:55:01.508Z,275
2017-06-03T06:56:02.983Z,285
2017-06-03T06:57:04.449Z,300
2017-06-03T06:58:05.920Z,310
2017-06-03T06:59:07.404Z,315
2017-06-03T07:00:08.875Z,310
2017-06-03T07:01:10.342Z,305
2017-06-03T07:02:11.817Z,295
2017-06-03T07:03:13.307Z,295
2017-06-03T07:04:14.780Z,300
2017-06-03T07:05:16.260Z,305
2017-06-03T07:06:17.761Z,315
2017-06-03T07:07:19.257Z,315
2017-06-03T07:08:20.727Z,300
2017-06-03T07:09:22.200Z,300
2017-06-03T07:10:23.688Z,305
2017-06-03T07:11:25.148Z,325
2017-06-03T07:12:26.613Z,350
2017-06-03T07:13:28.097Z,365
2017-06-03T07:14:29.569Z,365
2017-06-03T07:15:31.075Z,375
2017-06-03T07:16:32.552Z,380
2017-06-03T07:17:34.020Z,400
2017-06-03T07:18:35.491Z,415
2017-06-03T07:19:36.961Z,420
2017-06-03T07:20:38.435Z,415
2017-06-03T07:21:40.208Z,395
2017-06-03T07:22:41.988Z,360
2017-06-03T07:23:43.449Z,320
2017-06-03T07:24:44.996Z,275
2017-06-03T07:25:46.455Z,250
2017-06-03T07:26:47.931Z,230
2017-06-03T07:27:49.414Z,210
2017-06-03T07:28:50.885Z,195
2017-06-03T07:29:52.377Z,175
2017-06-03T07:30:53.833Z,165
2017-06-03T07:31:55.303Z,165
2017-06-03T07:32:56.767Z,170
2017-06-03T07:33:58.233Z,180
2017-06-03T07:34:59.724Z,190
2017-06-03T07:36:01.221Z,195
2017-06-03T07:37:02.700Z,190
2017-06-03T07:38:04.172Z,185
2017-06-03T07:39:05.643Z,185
2017-06-03T07:40:07.109Z,180
2017-06-03T07:41:08.576Z,180
2017-06-03T07:42:10.046Z,180
2017-06-03T07:43:11.536Z,180
2017-06-03T07:44:13.024Z,180
2017-06-03T07:45:14.491Z,180
2017-06-03T07:46:15.970Z,185
2017-06-03T07:47:17.452Z,200
2017-06-03T07:48:18.920Z,220
2017-06-03T07:49:20.398Z,240
2017-06-03T07:50:21.878Z,265
2017-06-03T07:51:23.361Z,275
2017-06-03T07:52:24.835Z,285
2017-06-03T07:53:26.306Z,285
2017-06-03T07:54:27.778Z,290
2017-06-03T07:55:29.247Z,300
2017-06-03T07:56:30.754Z,315
2017-06-03T07:57:32.227Z,335
2017-06-03T07:58:33.695Z,360
2017-06-03T07:59:35.170Z,375
2017-06-03T08:00:36.641Z,385
2017-06-03T08:01:38.115Z,380
2017-06-03T08:02:39.635Z,385
2017-06-03T08:03:41.132Z,405
2017-06-03T08:04:42.611Z,430
2017-06-03T08:05:44.094Z,445
2017-06-03T08:06:45.595Z,475
2017-06-03T08:07:47.127Z,505
2017-06-03T08:08:48.597Z,555
2017-06-03T08:09:50.072Z,610
2017-06-03T08:10:51.549Z,645
2017-06-03T08:11:53.024Z,670
2017-06-03T08:12:54.494Z,690
2017-06-03T08:13:55.985Z,720
2017-06-03T08:14:57.468Z,775
2017-06-03T08:15:58.958Z,825
2017-06-03T08:17:00.422Z,845
2017-06-03T08:18:01.904Z,855
2017-06-03T08:19:03.390Z,845
2017-06-03T08:20:04.874Z,820
2017-06-03T08:21:06.371Z,795
2017-06-03T08:22:07.842Z,795
2017-06-03T08:23:09.319Z,810
2017-06-03T08:24:10.801Z,855
2017-06-03T08:25:12.282Z,910
2017-06-03T08:26:13.780Z,960
2017-06-03T08:27:15.248Z,1005
2017-06-03T08:28:16.724Z,1065
2017-06-03T08:29:18.209Z,1115
2017-06-03T08:30:19.691Z,1120
2017-06-03T08:31:21.162Z,1135
2017-06-03T08:32:22.646Z,1130
2017-06-03T08:33:24.131Z,1145
2017-06-03T08:34:25.607Z,1170
2017-06-03T08:35:27.091Z,1200
2017-06-03T08:36:28.568Z,1225
2017-06-03T08:37:30.048Z,1255
2017-06-03T08:38:31.528Z,1275
2017-06-03T08:39:33.016Z,1315
2017-06-03T08:40:34.520Z,1340
2017-06-03T08:41:35.990Z,1390
2017-06-03T08:42:37.477Z,1440
2017-06-03T08:43:38.964Z,1995
2017-06-03T08:44:40.442Z,1725
2017-06-03T08:45:41.923Z,2405
2017-06-03T08:46:43.398Z,1695
2017-06-03T08:47:44.878Z,2280
2017-06-03T08:48:46.370Z,2365
2017-06-03T08:49:47.844Z,2545
2017-06-03T08:50:49.370Z,2585
2017-06-03T08:51:50.844Z,1985
2017-06-03T08:52:52.342Z,2670
2017-06-03T08:53:53.827Z,2335
2017-06-03T08:54:55.311Z,1730
2017-06-03T08:55:56.793Z,1795
2017-06-03T08:56:58.304Z,1590
2017-06-03T08:57:59.762Z,1795
2017-06-03T08:59:01.247Z,1895
2017-06-03T09:00:02.742Z,2205
2017-06-03T09:01:04.223Z,2235
2017-06-03T09:02:05.715Z,1845
2017-06-03T09:03:07.207Z,1470
2017-06-03T09:04:08.695Z,2410
2017-06-03T09:05:10.214Z,2515
2017-06-03T09:06:11.719Z,2470
2017-06-03T09:07:13.212Z,2545
2017-06-03T09:08:14.700Z,2505
2017-06-03T09:09:16.181Z,2440
2017-06-03T09:10:17.684Z,2580
2017-06-03T09:11:19.193Z,2700
2017-06-03T09:12:20.697Z,2755
2017-06-03T09:13:22.182Z,2660
2017-06-03T09:14:23.662Z,2505
2017-06-03T09:15:25.158Z,2500
2017-06-03T09:16:26.639Z,2510
2017-06-03T09:17:28.143Z,2490
2017-06-03T09:18:29.643Z,2510
2017-06-03T09:19:31.138Z,2670
2017-06-03T09:20:32.635Z,2605
2017-06-03T09:21:34.136Z,2490
2017-06-03T09:22:35.626Z,2420
2017-06-03T09:23:37.122Z,2505
2017-06-03T09:24:38.607Z,2825
2017-06-03T09:25:40.102Z,2805
2017-06-03T09:26:41.584Z,2720
2017-06-03T09:27:43.063Z,2710
2017-06-03T13:14:37.945Z,975
2017-06-03T13:15:39.427Z,995
2017-06-03T13:17:01.020Z,995
2017-06-03T13:18:02.546Z,1005
2017-06-03T13:19:24.719Z,1015
2017-06-03T13:20:26.231Z,1015
2017-06-03T13:21:47.859Z,1020
2017-06-03T13:22:49.348Z,1025
2017-06-03T13:24:10.911Z,1045
2017-06-03T13:25:12.453Z,1075
2017-06-03T13:26:34.021Z,1125
2017-06-03T13:27:35.564Z,1205
2017-06-03T13:28:57.116Z,1235
2017-06-03T13:29:58.620Z,1260
2017-06-03T13:31:20.205Z,1245
2017-06-03T13:32:21.682Z,1215
2017-06-03T13:33:43.274Z,1200
2017-06-03T13:34:44.756Z,1250
2017-06-03T13:36:06.321Z,1360
2017-06-03T13:37:07.824Z,1585
2017-06-03T13:38:29.384Z,1890
2017-06-03T13:39:30.880Z,2080
2017-06-03T13:40:52.439Z,2250
2017-06-03T13:41:53.920Z,2235
2017-06-03T13:43:15.504Z,1740
2017-06-03T13:44:16.974Z,2400
2017-06-03T13:45:38.525Z,2570
2017-06-03T13:46:40.013Z,2520
2017-06-03T13:48:02.593Z,2530
2017-06-03T13:49:04.081Z,2560
2017-06-03T13:50:25.680Z,2115
2017-06-03T13:51:27.172Z,2080
2017-06-03T13:52:28.659Z,1970
2017-06-03T13:53:30.164Z,1990
2017-06-03T13:54:31.643Z,1975
2017-06-03T13:55:33.141Z,1895
2017-06-03T13:56:34.643Z,1655
2017-06-03T13:57:36.133Z,1295
2017-06-03T13:58:37.614Z,1080
2017-06-03T13:59:39.086Z,935
2017-06-03T14:00:40.572Z,800
2017-06-03T14:01:42.064Z,705
2017-06-03T14:02:43.540Z,655
2017-06-03T14:03:45.094Z,640
2017-06-03T14:04:46.592Z,645
2017-06-03T14:05:48.074Z,645
2017-06-03T14:06:49.567Z,630
2017-06-03T14:07:51.108Z,610
2017-06-03T14:08:52.593Z,595
2017-06-03T14:09:54.074Z,590
2017-06-03T14:10:55.577Z,595
2017-06-03T14:11:57.077Z,595
2017-06-03T14:12:58.586Z,605
2017-06-03T14:14:00.092Z,620
2017-06-03T14:15:01.580Z,655
2017-06-03T14:16:03.067Z,685
2017-06-03T14:17:04.563Z,720
2017-06-03T14:18:06.055Z,735
2017-06-03T14:19:07.542Z,745
2017-06-03T14:20:09.033Z,750
2017-06-03T14:21:10.506Z,750
2017-06-03T14:22:11.988Z,755
2017-06-03T14:23:13.511Z,765
2017-06-03T14:24:15.004Z,770
2017-06-03T14:25:16.482Z,775
2017-06-03T14:26:17.963Z,775
2017-06-03T14:27:19.437Z,775
2017-06-03T14:28:20.924Z,785
2017-06-03T14:29:22.422Z,785
2017-06-03T14:30:23.903Z,800
2017-06-03T14:31:25.395Z,820
2017-06-03T14:32:26.885Z,820
2017-06-03T14:33:28.360Z,815
2017-06-03T14:34:29.841Z,800
2017-06-03T14:35:31.354Z,790
2017-06-03T14:36:32.854Z,760
2017-06-03T14:37:34.374Z,705
2017-06-03T14:38:35.866Z,650
2017-06-03T14:39:37.359Z,595
2017-06-03T14:40:38.862Z,560
2017-06-03T14:41:40.336Z,515
2017-06-03T14:42:41.822Z,490
2017-06-03T14:43:43.301Z,455
2017-06-03T14:44:44.783Z,435
2017-06-03T14:45:46.290Z,420
2017-06-03T14:46:47.823Z,415
2017-06-03T14:47:49.337Z,415
2017-06-03T14:48:50.841Z,410
2017-06-03T14:49:52.332Z,395
2017-06-03T14:50:53.818Z,375
2017-06-03T14:51:55.297Z,365
2017-06-03T14:52:56.862Z,335
2017-06-03T14:53:58.316Z,320
2017-06-03T14:54:59.789Z,315
2017-06-03T14:56:01.263Z,310
2017-06-03T14:57:02.738Z,320
2017-06-03T14:58:04.217Z,335
2017-06-03T14:59:05.693Z,365
2017-06-03T15:00:07.184Z,415
2017-06-03T15:01:08.675Z,490
2017-06-03T15:02:10.151Z,585
2017-06-03T15:03:11.617Z,685
2017-06-03T15:04:13.113Z,800
2017-06-03T15:05:14.586Z,855
2017-06-03T15:06:16.067Z,875
2017-06-03T15:07:17.554Z,890
2017-06-03T15:08:19.050Z,1055
2017-06-03T15:09:20.538Z,1245
2017-06-03T15:10:22.030Z,1395
2017-06-03T15:11:23.504Z,995
2017-06-03T15:12:24.980Z,945
2017-06-03T15:13:26.461Z,900
2017-06-03T15:14:27.949Z,845
2017-06-03T15:15:29.433Z,805
2017-06-03T15:16:30.910Z,800
2017-06-03T15:17:32.395Z,800
2017-06-03T15:18:33.870Z,810
2017-06-03T15:19:35.345Z,820
2017-06-03T15:20:36.842Z,840
2017-06-03T15:21:38.314Z,890
2017-06-03T15:22:39.796Z,1080
2017-06-03T15:23:41.287Z,1290
2017-06-03T15:24:42.791Z,1280
2017-06-03T15:25:44.275Z,1285
2017-06-03T15:26:45.799Z,1715
2017-06-03T15:27:47.278Z,2220
2017-06-03T15:28:48.763Z,1995
2017-06-03T15:29:50.240Z,1825
2017-06-03T15:30:51.717Z,1660
2017-06-03T15:31:53.205Z,1905
2017-06-03T15:32:54.714Z,1760
2017-06-03T15:33:56.180Z,1815
2017-06-03T15:34:57.659Z,1835
2017-06-03T15:35:59.155Z,2010
2017-06-03T15:37:00.640Z,1975
2017-06-03T15:38:02.141Z,1950
2017-06-03T15:39:03.630Z,1660
2017-06-03T15:40:05.117Z,1925
2017-06-03T15:41:06.598Z,1885
2017-06-03T15:42:08.086Z,1975
2017-06-03T15:43:09.565Z,1915
2017-06-03T15:44:11.079Z,2000
2017-06-03T15:45:12.594Z,1980
2017-06-03T15:46:14.133Z,1875
2017-06-03T15:47:15.643Z,1890
2017-06-03T15:48:17.133Z,1785
2017-06-03T15:49:18.623Z,1195
2017-06-03T15:50:20.112Z,1405
2017-06-03T15:51:21.621Z,1800
2017-06-03T15:52:23.116Z,1565
2017-06-03T15:53:24.607Z,1045
2017-06-03T15:54:26.085Z,1260
2017-06-03T15:55:27.580Z,1560
2017-06-03T15:56:29.103Z,1320
2017-06-03T15:57:30.615Z,1480
2017-06-03T15:58:32.103Z,1500
2017-06-03T15:59:33.618Z,1400
2017-06-03T16:00:35.089Z,1385
2017-06-03T16:01:36.570Z,1405
2017-06-03T16:02:38.070Z,1340
2017-06-03T16:03:39.543Z,1330
2017-06-03T16:04:41.057Z,1285
2017-06-03T16:05:42.546Z,1320
2017-06-03T16:06:44.024Z,1275
2017-06-03T16:07:45.512Z,1285
2017-06-03T16:08:46.985Z,1265
2017-06-03T16:09:48.480Z,1195
2017-06-03T16:10:49.960Z,1225
2017-06-03T16:11:51.492Z,1240
2017-06-03T16:12:52.963Z,1240
2017-06-03T16:13:54.456Z,1210
2017-06-03T16:14:55.952Z,1155
2017-06-03T16:15:57.435Z,1060
2017-06-03T16:16:58.927Z,1040
2017-06-03T16:18:00.400Z,975
2017-06-03T16:19:01.881Z,915
2017-06-03T16:20:03.374Z,825
2017-06-03T16:21:04.858Z,845
2017-06-03T16:22:06.349Z,850
2017-06-03T16:23:07.820Z,825
2017-06-03T16:24:09.324Z,835
2017-06-03T16:25:10.841Z,800
2017-06-03T16:26:12.364Z,835
2017-06-03T16:27:13.856Z,830
2017-06-03T16:28:15.353Z,870
2017-06-03T16:29:16.823Z,840
2017-06-03T16:30:18.303Z,810
2017-06-03T16:31:19.780Z,840
2017-06-03T16:32:21.248Z,840
2017-06-03T16:33:22.733Z,805
2017-06-03T16:34:24.216Z,800
2017-06-03T16:35:25.700Z,805
2017-06-03T16:36:27.186Z,785
2017-06-03T16:37:28.636Z,745
2017-06-03T16:38:30.118Z,730
2017-06-03T16:39:31.593Z,690
2017-06-03T16:40:33.082Z,550
2017-06-03T16:41:34.551Z,580
2017-06-03T16:42:36.028Z,560
2017-06-03T16:43:37.508Z,645
2017-06-03T16:44:39.019Z,590
2017-06-03T16:45:40.517Z,610
2017-06-03T16:46:42.007Z,610
2017-06-03T16:47:43.498Z,630
2017-06-03T16:48:44.986Z,615
2017-06-03T16:49:46.470Z,605
2017-06-03T16:50:47.954Z,585
2017-06-03T16:51:49.427Z,585
2017-06-03T16:52:50.895Z,570
2017-06-03T16:53:52.378Z,575
2017-06-03T16:54:53.856Z,565
2017-06-03T16:55:55.341Z,555
2017-06-03T16:56:56.825Z,550
2017-06-03T16:57:58.313Z,540
2017-06-03T16:58:59.805Z,540
2017-06-03T17:00:01.279Z,545
2017-06-03T17:01:02.769Z,555
2017-06-03T17:02:04.260Z,550
2017-06-03T17:03:05.735Z,545
2017-06-03T17:04:07.208Z,545
2017-06-03T17:05:08.686Z,530
2017-06-03T17:06:10.203Z,530
2017-06-03T17:07:11.674Z,510
2017-06-03T17:08:13.190Z,500
2017-06-03T17:09:14.677Z,490
2017-06-03T17:10:16.164Z,485
2017-06-03T17:11:17.649Z,480
2017-06-03T17:12:19.117Z,470
2017-06-03T17:13:20.594Z,465
2017-06-03T17:14:22.070Z,460
2017-06-03T17:15:23.539Z,460
2017-06-03T17:16:25.009Z,450
2017-06-03T17:17:26.516Z,445
2017-06-03T17:18:28.001Z,440
2017-06-03T17:19:29.477Z,440
2017-06-03T17:20:30.966Z,435
2017-06-03T17:21:32.439Z,430
2017-06-03T17:22:33.913Z,430
2017-06-03T17:23:35.396Z,420
2017-06-03T17:24:36.866Z,410
2017-06-03T17:25:38.363Z,405
2017-06-03T17:26:39.834Z,395
2017-06-03T17:27:41.331Z,390
2017-06-03T17:28:42.780Z,385
2017-06-03T17:29:44.265Z,375
2017-06-03T17:30:45.741Z,370
2017-06-03T17:31:47.221Z,365
2017-06-03T17:32:48.688Z,360
2017-06-03T17:33:50.180Z,350
2017-06-03T17:34:51.638Z,345
2017-06-03T17:35:53.113Z,335
2017-06-03T17:36:54.586Z,330
2017-06-03T17:37:56.050Z,325
2017-06-03T17:38:57.543Z,325
2017-06-03T17:39:59.015Z,320
2017-06-03T17:41:00.476Z,320
2017-06-03T17:42:01.947Z,315
2017-06-03T17:43:03.417Z,310
2017-06-03T17:44:04.883Z,310
2017-06-03T17:45:06.355Z,305
2017-06-03T17:46:08.352Z,305
2017-06-03T17:47:09.836Z,290
2017-06-03T17:48:11.352Z,280
2017-06-03T17:49:12.821Z,270
2017-06-03T17:50:14.304Z,265
2017-06-03T17:51:15.772Z,255
2017-06-03T17:52:17.255Z,250
2017-06-03T17:53:18.728Z,245
2017-06-03T17:54:20.252Z,240
2017-06-03T17:55:21.643Z,235
2017-06-03T17:56:23.113Z,230
2017-06-03T17:57:24.663Z,220
2017-06-03T17:58:26.130Z,215
2017-06-03T17:59:27.758Z,210
2017-06-03T18:00:29.221Z,205
2017-06-03T18:01:30.691Z,200
2017-06-03T18:02:32.160Z,190
2017-06-03T18:03:33.632Z,185
2017-06-03T18:04:35.106Z,185
2017-06-03T18:05:36.632Z,175
2017-06-03T18:06:38.105Z,170
2017-06-03T18:07:39.570Z,165
2017-06-03T18:08:41.059Z,160
2017-06-03T18:09:42.537Z,155